Time;durP1;ratioP1;P1;durP2;ratioP2;P2;SDS_P1;SDS_P2;PMS_P1;PMS_P2;Temp;Humidity;BMP_temperature;BMP_pressure;BME280_temperature;BME280_humidity;BME280_pressure;Samples;Min_cycle;Max_cycle;Signal;HPM_P1;HPM_P2
2023/07/17 00:01:34;;;;;;;5.63;4.07;;;19.90;99.90;;;;;;4982588;28;20193;-81
2023/07/17 00:04:02;;;;;;;7.20;3.97;;;19.90;99.90;;;;;;4977621;28;20205;-82
2023/07/17 00:06:29;;;;;;;8.18;4.65;;;19.60;99.90;;;;;;4976797;28;20582;-81
2023/07/17 00:08:58;;;;;;;6.47;4.30;;;19.60;99.90;;;;;;4977091;28;20565;-81
2023/07/17 00:11:26;;;;;;;7.10;4.15;;;19.60;99.90;;;;;;4976993;28;20216;-81
2023/07/17 00:13:54;;;;;;;5.82;3.78;;;19.50;99.90;;;;;;4976419;28;20212;-81
2023/07/17 00:16:22;;;;;;;7.15;4.75;;;19.40;99.90;;;;;;4982904;28;20192;-81
2023/07/17 00:18:49;;;;;;;5.82;4.43;;;19.30;99.90;;;;;;4976217;28;20213;-81
2023/07/17 00:21:17;;;;;;;6.32;4.25;;;19.20;99.90;;;;;;4983332;28;20196;-81
2023/07/17 00:23:44;;;;;;;4.88;3.92;;;19.30;99.90;;;;;;4967514;28;20209;-81
2023/07/17 00:26:13;;;;;;;7.13;4.20;;;19.30;99.90;;;;;;4980462;28;20347;-81
2023/07/17 00:28:41;;;;;;;6.13;4.40;;;19.50;99.90;;;;;;4981652;28;20208;-81
2023/07/17 00:31:08;;;;;;;6.78;4.68;;;19.60;99.90;;;;;;4984112;28;20200;-81
2023/07/17 00:33:35;;;;;;;8.77;4.95;;;19.70;99.90;;;;;;4976405;28;20201;-81
2023/07/17 00:36:03;;;;;;;6.60;4.13;;;19.60;99.90;;;;;;4963312;28;20231;-81
2023/07/17 00:38:30;;;;;;;6.55;4.07;;;19.40;99.90;;;;;;4972028;28;20646;-81
2023/07/17 00:40:58;;;;;;;6.85;4.22;;;19.60;99.90;;;;;;4995487;28;20205;-81
2023/07/17 00:43:27;;;;;;;7.60;3.65;;;19.60;99.90;;;;;;4987952;28;20197;-81
2023/07/17 00:45:54;;;;;;;7.80;4.15;;;19.60;99.90;;;;;;4968858;28;20236;-81
2023/07/17 00:48:23;;;;;;;5.88;3.55;;;19.60;99.90;;;;;;4978520;28;20233;-81
2023/07/17 00:50:52;;;;;;;4.97;3.00;;;19.70;99.90;;;;;;4987769;28;20654;-81
2023/07/17 00:53:19;;;;;;;6.75;3.22;;;19.60;99.90;;;;;;4960917;28;20220;-81
2023/07/17 00:55:47;;;;;;;6.63;3.15;;;19.60;99.90;;;;;;4983883;28;20221;-81
2023/07/17 00:58:15;;;;;;;4.22;3.22;;;19.40;99.90;;;;;;4960415;28;20201;-81
2023/07/17 01:00:44;;;;;;;4.63;2.95;;;19.30;99.90;;;;;;4977199;28;20558;-81
2023/07/17 01:03:13;;;;;;;4.28;3.03;;;19.20;99.90;;;;;;4976704;28;20200;-81
2023/07/17 01:05:40;;;;;;;4.50;3.08;;;19.20;99.90;;;;;;4981109;28;20691;-81
2023/07/17 01:08:08;;;;;;;5.57;2.92;;;19.10;99.90;;;;;;4981450;28;20217;-81
2023/07/17 01:10:35;;;;;;;7.20;3.00;;;19.20;99.90;;;;;;4977258;28;20201;-81
2023/07/17 01:13:03;;;;;;;4.97;3.22;;;19.00;99.90;;;;;;4976300;28;20579;-81
2023/07/17 01:15:31;;;;;;;3.97;3.58;;;19.00;99.90;;;;;;4959980;28;20228;-81
2023/07/17 01:18:00;;;;;;;4.65;2.75;;;18.80;99.90;;;;;;4977313;28;20193;-81
2023/07/17 01:20:29;;;;;;;4.38;2.72;;;18.90;99.90;;;;;;4978671;28;20205;-81
2023/07/17 01:23:02;;;;;;;5.63;3.17;;;18.90;99.90;;;;;;4980817;28;20205;-81
2023/07/17 01:25:30;;;;;;;4.78;2.78;;;18.70;99.90;;;;;;4978913;28;20231;-81
2023/07/17 01:27:57;;;;;;;3.33;2.97;;;18.60;99.90;;;;;;4977070;28;20228;-81
2023/07/17 01:30:25;;;;;;;3.75;3.35;;;18.60;99.90;;;;;;4967689;28;20213;-81
2023/07/17 01:32:52;;;;;;;5.32;3.25;;;18.70;99.90;;;;;;4971099;28;20216;-82
2023/07/17 01:35:20;;;;;;;6.50;2.92;;;18.90;99.90;;;;;;4985410;28;20220;-81
2023/07/17 01:37:47;;;;;;;5.32;2.83;;;19.00;99.90;;;;;;4979174;28;20567;-81
2023/07/17 01:40:17;;;;;;;4.22;2.55;;;18.90;99.90;;;;;;4977318;28;20215;-81
2023/07/17 01:42:44;;;;;;;5.22;2.80;;;18.70;99.90;;;;;;4979318;28;20200;-81
2023/07/17 01:45:11;;;;;;;4.43;2.72;;;18.60;99.90;;;;;;4977586;28;20220;-81
2023/07/17 01:47:39;;;;;;;4.97;2.65;;;18.80;99.90;;;;;;4976904;28;20217;-81
2023/07/17 01:50:07;;;;;;;6.35;2.80;;;19.00;99.90;;;;;;4989987;28;20213;-81
2023/07/17 01:52:35;;;;;;;4.28;2.75;;;18.90;99.90;;;;;;4993072;28;20215;-81
2023/07/17 01:55:02;;;;;;;5.07;2.85;;;18.80;99.90;;;;;;4997969;28;20219;-81
2023/07/17 01:57:31;;;;;;;3.17;2.58;;;18.60;99.90;;;;;;4964045;28;20202;-81
2023/07/17 01:59:59;;;;;;;4.93;2.78;;;18.70;99.90;;;;;;4980245;28;20201;-81
2023/07/17 02:02:26;;;;;;;3.60;3.15;;;18.60;99.90;;;;;;4965482;28;20205;-81
2023/07/17 02:04:54;;;;;;;3.65;2.85;;;18.50;99.90;;;;;;4980295;28;20228;-81
2023/07/17 02:07:21;;;;;;;5.15;3.45;;;18.50;99.90;;;;;;4971447;28;20240;-81
2023/07/17 02:09:49;;;;;;;3.97;2.97;;;18.40;99.90;;;;;;4981213;28;20208;-81
2023/07/17 02:12:16;;;;;;;4.78;3.28;;;18.60;99.90;;;;;;4979739;28;20224;-81
2023/07/17 02:14:45;;;;;;;5.78;3.50;;;18.50;99.90;;;;;;4974478;28;20224;-82
2023/07/17 02:17:13;;;;;;;5.55;3.33;;;18.40;99.90;;;;;;4970294;28;20201;-81
2023/07/17 02:19:41;;;;;;;8.07;3.80;;;18.40;99.90;;;;;;4963399;28;20212;-81
2023/07/17 02:22:08;;;;;;;7.60;3.42;;;18.50;99.90;;;;;;4986661;28;20208;-81
2023/07/17 02:24:36;;;;;;;6.80;3.42;;;18.40;99.90;;;;;;4980449;28;20217;-81
2023/07/17 02:27:04;;;;;;;5.55;3.08;;;18.50;99.90;;;;;;4963560;28;20690;-81
2023/07/17 02:29:32;;;;;;;6.30;3.53;;;18.30;99.90;;;;;;4986428;28;20211;-81
2023/07/17 02:32:01;;;;;;;5.03;3.15;;;18.30;99.90;;;;;;4984061;28;20216;-81
2023/07/17 02:34:28;;;;;;;4.35;3.08;;;18.40;99.90;;;;;;4980181;28;20663;-81
2023/07/17 02:36:57;;;;;;;5.45;2.72;;;18.30;99.90;;;;;;4986498;28;20211;-81
2023/07/17 02:39:25;;;;;;;4.45;2.60;;;18.40;99.90;;;;;;4981785;28;20205;-81
2023/07/17 02:41:52;;;;;;;7.05;3.28;;;18.20;99.90;;;;;;4987244;28;20211;-81
2023/07/17 02:44:20;;;;;;;4.65;3.30;;;18.10;99.90;;;;;;4978342;28;20228;-81
2023/07/17 02:46:47;;;;;;;4.68;3.13;;;18.10;99.90;;;;;;4963008;28;20201;-81
2023/07/17 02:49:16;;;;;;;6.32;2.80;;;18.20;99.90;;;;;;4983882;28;20209;-81
2023/07/17 02:51:43;;;;;;;4.03;3.13;;;18.10;99.90;;;;;;4978003;28;20197;-81
2023/07/17 02:54:11;;;;;;;3.33;2.55;;;18.10;99.90;;;;;;4988222;28;20224;-81
2023/07/17 02:56:38;;;;;;;4.47;2.40;;;18.00;99.90;;;;;;4963702;28;20212;-81
2023/07/17 02:59:06;;;;;;;4.95;2.90;;;18.00;99.90;;;;;;4962656;28;20205;-81
2023/07/17 03:01:33;;;;;;;3.65;2.60;;;17.90;99.90;;;;;;4963769;28;20702;-81
2023/07/17 03:04:02;;;;;;;3.75;2.53;;;17.80;99.90;;;;;;4986845;28;20221;-81
2023/07/17 03:06:31;;;;;;;4.78;2.75;;;17.70;99.90;;;;;;4977210;28;20683;-81
2023/07/17 03:08:59;;;;;;;4.38;2.70;;;17.70;99.90;;;;;;4980110;28;20695;-81
2023/07/17 03:11:26;;;;;;;3.95;2.40;;;17.80;99.90;;;;;;4967643;28;20219;-81
2023/07/17 03:13:54;;;;;;;3.88;2.70;;;17.90;99.90;;;;;;4962029;28;20209;-81
2023/07/17 03:16:21;;;;;;;3.38;2.28;;;17.80;99.90;;;;;;4976887;28;20204;-81
2023/07/17 03:18:49;;;;;;;4.40;2.28;;;17.90;99.90;;;;;;4979997;28;20234;-81
2023/07/17 03:21:43;;;;;;;4.97;2.33;;;17.90;99.90;;;;;;4982384;28;20207;-81
2023/07/17 03:24:11;;;;;;;3.95;2.17;;;17.80;99.90;;;;;;4974062;28;20222;-81
2023/07/17 03:26:38;;;;;;;3.13;2.50;;;17.80;99.90;;;;;;4972066;28;20204;-81
2023/07/17 03:29:08;;;;;;;4.93;2.67;;;17.70;99.90;;;;;;4975909;28;20228;-81
2023/07/17 03:31:36;;;;;;;4.75;2.15;;;17.90;99.90;;;;;;4976126;28;20560;-81
2023/07/17 03:34:03;;;;;;;3.70;2.33;;;17.90;99.90;;;;;;4978916;28;20216;-81
2023/07/17 03:36:31;;;;;;;3.90;2.50;;;17.80;99.90;;;;;;4982447;28;20212;-81
2023/07/17 03:39:00;;;;;;;4.47;2.58;;;17.70;99.90;;;;;;4976796;28;20193;-81
2023/07/17 03:41:27;;;;;;;4.75;2.78;;;17.70;99.90;;;;;;4968558;28;20204;-81
2023/07/17 03:43:58;;;;;;;2.80;2.38;;;17.60;99.90;;;;;;4976850;28;20201;-81
2023/07/17 03:46:26;;;;;;;4.07;2.25;;;17.60;99.90;;;;;;4975773;28;20211;-81
2023/07/17 03:48:53;;;;;;;3.13;2.60;;;17.60;99.90;;;;;;4978985;28;20232;-81
2023/07/17 03:51:21;;;;;;;3.13;2.22;;;17.70;99.90;;;;;;4977919;28;20205;-81
2023/07/17 03:53:53;;;;;;;2.75;2.05;;;17.60;99.90;;;;;;4978917;28;20201;-81
2023/07/17 03:56:22;;;;;;;3.83;2.00;;;17.50;99.90;;;;;;4960678;28;20197;-81
2023/07/17 03:58:53;;;;;;;2.33;2.05;;;17.40;99.90;;;;;;4975136;28;20273;-81
2023/07/17 04:01:40;;;;;;;5.50;2.25;;;17.40;99.90;;;;;;4976008;28;20205;-81
2023/07/17 04:04:08;;;;;;;2.38;2.00;;;17.40;99.90;;;;;;4978662;28;20227;-81
2023/07/17 04:06:35;;;;;;;4.30;2.33;;;17.30;99.90;;;;;;4959883;28;20193;-81
2023/07/17 04:09:04;;;;;;;3.13;2.08;;;17.40;99.90;;;;;;4976228;28;20220;-81
2023/07/17 04:11:36;;;;;;;3.83;1.98;;;17.40;99.90;;;;;;4974357;28;20568;-81
2023/07/17 04:14:04;;;;;;;4.65;2.55;;;17.40;99.90;;;;;;4970521;28;20206;-81
2023/07/17 04:16:32;;;;;;;3.55;2.50;;;17.30;99.90;;;;;;4975762;28;20205;-81
2023/07/17 04:18:59;;;;;;;2.92;2.38;;;17.20;99.90;;;;;;4983338;28;20304;-81
2023/07/17 04:21:31;;;;;;;3.38;2.17;;;17.20;99.90;;;;;;4976048;28;20204;-81
2023/07/17 04:23:59;;;;;;;2.95;2.25;;;17.30;99.90;;;;;;4958835;28;20655;-81
2023/07/17 04:26:38;;;;;;;4.18;2.08;;;17.30;99.90;;;;;;4986474;28;20200;-81
2023/07/17 04:29:06;;;;;;;6.28;2.13;;;17.30;99.90;;;;;;4974879;28;20229;-81
2023/07/17 04:31:34;;;;;;;2.45;2.08;;;17.20;99.90;;;;;;4982128;28;20203;-81
2023/07/17 04:34:02;;;;;;;2.88;2.38;;;17.40;99.90;;;;;;4982238;28;20222;-81
2023/07/17 04:36:30;;;;;;;3.67;2.47;;;17.30;99.90;;;;;;4977704;28;20207;-81
2023/07/17 04:38:58;;;;;;;3.58;2.28;;;17.20;99.90;;;;;;4976580;28;20209;-81
2023/07/17 04:41:26;;;;;;;4.28;2.30;;;17.30;99.90;;;;;;4972056;28;20209;-81
2023/07/17 04:43:56;;;;;;;6.53;2.38;;;17.50;99.90;;;;;;4977225;28;20631;-81
2023/07/17 04:46:25;;;;;;;2.78;2.25;;;17.40;99.90;;;;;;4978115;28;20209;-81
2023/07/17 04:48:53;;;;;;;4.25;2.50;;;17.40;99.90;;;;;;4983332;28;20228;-81
2023/07/17 04:51:21;;;;;;;4.65;2.10;;;17.40;99.90;;;;;;4984078;28;20549;-81
2023/07/17 04:53:49;;;;;;;3.28;2.28;;;17.20;99.90;;;;;;4986710;28;20209;-81
2023/07/17 04:56:15;;;;;;;4.10;2.40;;;17.20;99.90;;;;;;4992539;28;20197;-83
2023/07/17 04:58:43;;;;;;;4.60;2.65;;;17.30;99.90;;;;;;4981335;28;20200;-82
2023/07/17 05:01:12;;;;;;;4.47;2.47;;;17.30;99.90;;;;;;4980095;28;20205;-82
2023/07/17 05:03:47;;;;;;;3.03;1.95;;;17.20;99.90;;;;;;4972921;28;20201;-85
2023/07/17 05:06:15;;;;;;;6.10;2.53;;;17.30;99.90;;;;;;4962078;28;20693;-83
2023/07/17 05:08:43;;;;;;;7.15;2.60;;;17.00;99.90;;;;;;4982582;28;20224;-83
2023/07/17 05:11:11;;;;;;;5.97;2.75;;;17.30;99.90;;;;;;4958686;28;20223;-82
2023/07/17 05:13:45;;;;;;;5.53;2.63;;;17.10;99.90;;;;;;4974470;28;20203;-82
2023/07/17 05:16:14;;;;;;;4.05;2.60;;;17.10;99.90;;;;;;4971728;28;20235;-82
2023/07/17 05:18:42;;;;;;;5.80;3.45;;;17.30;99.90;;;;;;4975620;28;20220;-83
2023/07/17 05:21:09;;;;;;;3.85;2.85;;;17.40;99.90;;;;;;4976024;28;20216;-84
2023/07/17 05:23:37;;;;;;;3.58;2.78;;;17.40;99.90;;;;;;4974075;28;20205;-84
2023/07/17 05:26:05;;;;;;;4.25;2.58;;;17.20;99.90;;;;;;4969149;28;20235;-84
2023/07/17 05:28:32;;;;;;;4.35;2.80;;;17.60;99.90;;;;;;4974403;28;20205;-84
2023/07/17 05:31:00;;;;;;;4.47;2.72;;;17.60;99.90;;;;;;4975581;28;20197;-87
2023/07/17 05:33:29;;;;;;;6.43;3.08;;;17.60;99.90;;;;;;4975166;28;20208;-83
2023/07/17 05:35:56;;;;;;;5.50;2.78;;;17.60;99.90;;;;;;4974258;28;20221;-84
2023/07/17 05:38:27;;;;;;;4.38;3.08;;;17.70;99.90;;;;;;4960216;28;20204;-80
2023/07/17 05:41:01;;;;;;;5.88;3.05;;;17.80;99.90;;;;;;4975043;28;20201;-82
2023/07/17 05:43:31;;;;;;;5.93;2.70;;;17.80;99.90;;;;;;4966549;28;20204;-82
2023/07/17 05:46:05;;;;;;;6.00;3.03;;;17.60;99.90;;;;;;4974653;28;20225;-81
2023/07/17 05:48:34;;;;;;;5.05;2.95;;;17.60;99.90;;;;;;4978859;28;20223;-82
2023/07/17 05:51:01;;;;;;;5.55;2.75;;;17.90;99.90;;;;;;4974202;28;20213;-80
2023/07/17 05:53:29;;;;;;;5.40;3.20;;;17.90;99.90;;;;;;4974165;28;20701;-81
2023/07/17 05:55:56;;;;;;;6.53;3.15;;;17.90;99.90;;;;;;4972268;28;20240;-81
2023/07/17 05:58:24;;;;;;;7.45;3.65;;;17.70;99.90;;;;;;4955774;28;20204;-80
2023/07/17 06:00:51;;;;;;;7.15;3.33;;;17.80;99.90;;;;;;4956973;28;20193;-81
2023/07/17 06:03:20;;;;;;;9.40;3.72;;;17.80;99.90;;;;;;4972142;28;20750;-82
2023/07/17 06:05:48;;;;;;;5.90;3.33;;;17.90;99.90;;;;;;4971329;28;20221;-81
2023/07/17 06:08:16;;;;;;;5.10;3.13;;;17.90;99.90;;;;;;4973212;28;20193;-81
2023/07/17 06:10:43;;;;;;;5.03;2.97;;;17.90;99.90;;;;;;4969168;28;20228;-81
2023/07/17 06:13:12;;;;;;;4.68;3.40;;;17.80;99.90;;;;;;4974582;28;20212;-80
2023/07/17 06:15:40;;;;;;;6.32;3.35;;;18.00;99.90;;;;;;4973758;28;20225;-80
2023/07/17 06:18:07;;;;;;;6.95;3.97;;;17.90;99.90;;;;;;4982539;28;20550;-80
2023/07/17 06:20:35;;;;;;;5.28;3.25;;;17.80;99.90;;;;;;4975515;28;20190;-81
2023/07/17 06:23:04;;;;;;;6.00;3.90;;;17.80;99.90;;;;;;4974654;28;20204;-81
2023/07/17 06:25:31;;;;;;;7.70;4.13;;;17.80;99.90;;;;;;4958588;28;20229;-81
2023/07/17 06:27:59;;;;;;;6.93;3.55;;;18.10;99.90;;;;;;4965159;28;20212;-81
2023/07/17 06:30:26;;;;;;;6.72;3.83;;;18.20;99.90;;;;;;4961646;28;20248;-81
2023/07/17 06:32:53;;;;;;;6.70;4.10;;;18.30;99.90;;;;;;4975950;28;20200;-80
2023/07/17 06:35:21;;;;;;;7.20;3.67;;;18.50;99.90;;;;;;4975175;28;20236;-80
2023/07/17 06:37:48;;;;;;;8.82;4.55;;;18.90;99.90;;;;;;4977450;28;20573;-80
2023/07/17 06:40:17;;;;;;;6.15;3.80;;;18.70;99.90;;;;;;4974657;28;20197;-80
2023/07/17 06:42:45;;;;;;;9.27;4.63;;;18.70;99.90;;;;;;4974271;28;20204;-80
2023/07/17 06:45:12;;;;;;;8.15;4.93;;;18.80;99.90;;;;;;4963974;28;20237;-81
2023/07/17 06:47:39;;;;;;;6.72;4.57;;;18.80;99.90;;;;;;4974430;28;20200;-81
2023/07/17 06:50:09;;;;;;;6.82;4.95;;;18.80;99.90;;;;;;4969759;28;20618;-81
2023/07/17 06:52:38;;;;;;;7.57;4.88;;;18.80;99.90;;;;;;4973069;28;20205;-81
2023/07/17 06:55:07;;;;;;;10.52;5.40;;;18.80;99.90;;;;;;4970596;28;20233;-81
2023/07/17 06:57:36;;;;;;;8.82;5.38;;;18.90;99.90;;;;;;4972187;28;20201;-81
2023/07/17 07:00:05;;;;;;;9.15;4.70;;;18.60;99.90;;;;;;4969408;28;20213;-81
2023/07/17 07:02:49;;;;;;;10.00;5.43;;;18.70;99.90;;;;;;4971369;28;20200;-80
2023/07/17 07:05:16;;;;;;;8.40;5.40;;;18.70;99.90;;;;;;4965565;28;20220;-81
2023/07/17 07:07:48;;;;;;;8.95;4.97;;;18.90;99.90;;;;;;4978149;28;20196;-80
2023/07/17 07:10:16;;;;;;;9.70;5.45;;;19.00;99.90;;;;;;4962348;28;20216;-80
2023/07/17 07:12:44;;;;;;;7.88;5.90;;;19.10;99.90;;;;;;4976974;28;20213;-81
2023/07/17 07:15:12;;;;;;;8.65;5.25;;;18.90;99.90;;;;;;4972060;28;20225;-81
2023/07/17 07:17:39;;;;;;;9.18;5.65;;;18.70;99.90;;;;;;4974474;28;20241;-81
2023/07/17 07:20:08;;;;;;;7.97;5.15;;;18.90;99.90;;;;;;4975464;28;20205;-81
2023/07/17 07:22:35;;;;;;;10.25;5.95;;;18.90;99.90;;;;;;4970064;28;20205;-81
2023/07/17 07:25:03;;;;;;;9.82;6.15;;;18.90;99.90;;;;;;4978877;28;20235;-81
2023/07/17 07:27:31;;;;;;;8.70;5.72;;;18.90;99.90;;;;;;4983143;28;20208;-81
2023/07/17 07:30:00;;;;;;;8.27;5.82;;;18.90;99.90;;;;;;4971521;28;20216;-81
2023/07/17 07:32:27;;;;;;;8.10;5.55;;;18.90;99.90;;;;;;4980557;28;20212;-81
2023/07/17 07:35:00;;;;;;;10.82;6.03;;;19.10;99.90;;;;;;4960542;28;20556;-82
2023/07/17 07:37:27;;;;;;;10.05;6.00;;;19.10;99.90;;;;;;4977234;28;20576;-82
2023/07/17 07:40:06;;;;;;;10.63;5.82;;;19.20;99.90;;;;;;4980225;28;20197;-82
2023/07/17 07:42:33;;;;;;;7.25;5.20;;;19.10;99.90;;;;;;4982447;28;20212;-81
2023/07/17 07:45:02;;;;;;;8.68;5.07;;;19.30;99.90;;;;;;4965995;28;20225;-82
2023/07/17 07:47:30;;;;;;;9.63;5.45;;;19.10;99.90;;;;;;4975802;28;20216;-82
2023/07/17 07:49:57;;;;;;;10.27;5.85;;;19.20;99.90;;;;;;4974061;28;20197;-82
2023/07/17 07:52:25;;;;;;;10.80;5.65;;;19.00;99.90;;;;;;4973297;28;20201;-82
2023/07/17 07:54:53;;;;;;;13.52;5.72;;;19.00;99.90;;;;;;4970332;28;20227;-82
2023/07/17 07:57:21;;;;;;;8.00;5.15;;;19.00;99.90;;;;;;4971604;28;20674;-82
2023/07/17 07:59:49;;;;;;;10.88;5.53;;;19.20;99.90;;;;;;4972215;28;20197;-80
2023/07/17 08:02:19;;;;;;;8.18;5.05;;;19.10;99.90;;;;;;4957019;28;20193;-81
2023/07/17 08:05:15;;;;;;;8.32;5.05;;;19.10;99.90;;;;;;4970868;28;20221;-82
2023/07/17 08:07:43;;;;;;;6.43;4.78;;;19.50;99.90;;;;;;4969974;28;20208;-82
2023/07/17 08:10:10;;;;;;;6.45;4.50;;;19.60;99.90;;;;;;4973000;28;20244;-83
2023/07/17 08:12:38;;;;;;;12.75;5.40;;;19.30;99.90;;;;;;4972718;28;20201;-82
2023/07/17 08:15:08;;;;;;;6.63;4.47;;;19.30;99.90;;;;;;4972690;28;20224;-81
2023/07/17 08:17:36;;;;;;;6.90;4.50;;;19.50;99.90;;;;;;4969779;28;20675;-78
2023/07/17 08:20:06;;;;;;;8.95;5.15;;;19.60;99.90;;;;;;4953189;28;20677;-82
2023/07/17 08:22:33;;;;;;;7.30;4.82;;;19.70;99.90;;;;;;4977477;28;20589;-81
2023/07/17 08:25:01;;;;;;;6.88;4.65;;;19.70;99.90;;;;;;4969341;28;20221;-80
2023/07/17 08:27:29;;;;;;;6.45;4.38;;;19.60;99.90;;;;;;4976835;28;20196;-81
2023/07/17 08:29:57;;;;;;;7.70;5.20;;;19.70;99.90;;;;;;4972398;28;20228;-82
2023/07/17 08:32:24;;;;;;;5.68;4.72;;;19.80;99.90;;;;;;4956448;28;20224;-82
2023/07/17 08:34:53;;;;;;;7.55;5.28;;;19.80;99.90;;;;;;4970576;28;20239;-81
2023/07/17 08:37:20;;;;;;;6.80;4.85;;;19.80;99.90;;;;;;4971845;28;20197;-81
2023/07/17 08:39:48;;;;;;;8.10;4.40;;;19.60;99.90;;;;;;4971068;28;20209;-81
2023/07/17 08:42:16;;;;;;;8.07;4.30;;;19.60;99.90;;;;;;4974783;28;20208;-81
2023/07/17 08:44:43;;;;;;;7.53;4.78;;;19.30;99.90;;;;;;4971239;28;20225;-81
2023/07/17 08:47:11;;;;;;;5.60;4.22;;;19.20;99.90;;;;;;4973718;28;20208;-81
2023/07/17 08:49:39;;;;;;;6.28;3.95;;;19.40;99.90;;;;;;4956326;28;20204;-82
2023/07/17 08:52:11;;;;;;;6.93;4.00;;;19.60;99.90;;;;;;4973975;28;20236;-82
2023/07/17 08:54:39;;;;;;;6.22;3.95;;;19.50;99.90;;;;;;4973018;28;20228;-81
2023/07/17 08:57:07;;;;;;;6.05;3.55;;;19.60;99.90;;;;;;4972294;28;20208;-82
2023/07/17 08:59:36;;;;;;;6.53;3.50;;;19.80;99.90;;;;;;4971484;28;20201;-81
2023/07/17 09:02:05;;;;;;;4.85;3.63;;;19.70;99.90;;;;;;4955295;28;20209;-79
2023/07/17 09:04:34;;;;;;;7.95;3.42;;;19.60;99.90;;;;;;4972179;28;20229;-80
2023/07/17 09:07:01;;;;;;;4.30;3.30;;;19.70;99.90;;;;;;4972004;28;20212;-81
2023/07/17 09:09:30;;;;;;;6.20;3.72;;;19.70;99.90;;;;;;4970466;28;20208;-82
2023/07/17 09:12:08;;;;;;;4.95;3.38;;;19.70;99.90;;;;;;4973488;28;20225;-81
2023/07/17 09:14:35;;;;;;;5.50;3.60;;;19.60;99.90;;;;;;4971948;28;20227;-82
2023/07/17 09:17:04;;;;;;;6.75;3.50;;;19.70;99.90;;;;;;4955665;28;20222;-81
2023/07/17 09:19:32;;;;;;;6.63;3.55;;;19.80;99.50;;;;;;4972781;28;20540;-82
2023/07/17 09:22:00;;;;;;;6.30;3.63;;;20.00;99.80;;;;;;4977514;28;20192;-82
2023/07/17 09:24:28;;;;;;;7.82;3.67;;;20.00;98.90;;;;;;4976220;28;20216;-82
2023/07/17 09:26:57;;;;;;;7.63;4.40;;;19.90;99.70;;;;;;4973157;28;20193;-82
2023/07/17 09:29:25;;;;;;;5.55;3.70;;;19.80;99.90;;;;;;4976020;28;20189;-79
2023/07/17 09:31:52;;;;;;;6.10;3.38;;;20.10;99.90;;;;;;4976469;28;20227;-82
2023/07/17 09:34:20;;;;;;;5.85;3.00;;;20.20;98.50;;;;;;4965624;28;20226;-82
2023/07/17 09:36:51;;;;;;;5.22;3.22;;;20.10;97.80;;;;;;4976546;28;20204;-82
2023/07/17 09:39:19;;;;;;;7.40;3.72;;;20.20;98.30;;;;;;4979368;28;20196;-82
2023/07/17 09:41:46;;;;;;;5.97;3.40;;;20.10;98.60;;;;;;4976432;28;20204;-82
2023/07/17 09:44:19;;;;;;;5.30;3.53;;;20.10;98.00;;;;;;4973563;28;20231;-81
2023/07/17 09:46:49;;;;;;;4.93;3.15;;;20.10;98.20;;;;;;4975067;28;20213;-80
2023/07/17 09:49:18;;;;;;;5.72;3.40;;;20.10;97.70;;;;;;4966721;28;20212;-81
2023/07/17 09:51:46;;;;;;;6.07;3.63;;;20.20;98.50;;;;;;4978361;28;20220;-82
2023/07/17 09:54:13;;;;;;;4.63;3.03;;;20.50;98.60;;;;;;4976116;28;20213;-82
2023/07/17 09:56:42;;;;;;;4.38;3.25;;;20.40;97.80;;;;;;4982016;28;20568;-80
2023/07/17 09:59:14;;;;;;;5.38;2.90;;;20.20;98.00;;;;;;4968503;28;20213;-82
2023/07/17 10:01:47;;;;;;;5.28;3.10;;;20.20;98.10;;;;;;4976446;28;20205;-82
2023/07/17 10:04:22;;;;;;;6.28;3.35;;;20.10;97.60;;;;;;4971911;28;20232;-82
2023/07/17 10:06:54;;;;;;;3.92;2.85;;;20.20;97.30;;;;;;4971103;28;20199;-82
2023/07/17 10:09:22;;;;;;;5.18;2.95;;;20.60;96.50;;;;;;4974317;28;20203;-83
2023/07/17 10:11:50;;;;;;;6.47;3.20;;;20.80;96.80;;;;;;4971479;28;20240;-81
2023/07/17 10:14:17;;;;;;;6.88;4.15;;;20.90;95.80;;;;;;4973290;28;20225;-81
2023/07/17 10:16:46;;;;;;;6.78;2.55;;;20.60;95.80;;;;;;4969970;28;20205;-82
2023/07/17 10:19:14;;;;;;;3.28;2.83;;;20.80;95.90;;;;;;4977300;28;20200;-83
2023/07/17 10:21:54;;;;;;;5.13;3.03;;;20.80;95.90;;;;;;4982371;28;20200;-79
2023/07/17 10:24:23;;;;;;;6.55;3.05;;;20.70;96.30;;;;;;4969526;28;20223;-83
2023/07/17 10:26:51;;;;;;;5.85;2.92;;;21.10;95.90;;;;;;4969973;28;20205;-81
2023/07/17 10:29:31;;;;;;;4.80;2.75;;;21.00;95.40;;;;;;4969470;28;20296;-82
2023/07/17 10:31:59;;;;;;;4.85;2.58;;;20.70;95.90;;;;;;4974858;28;20217;-82
2023/07/17 10:34:48;;;;;;;3.10;2.47;;;21.10;96.00;;;;;;4953072;28;20232;-83
2023/07/17 10:37:40;;;;;;;3.13;2.53;;;21.10;95.50;;;;;;4970214;28;20201;-83
2023/07/17 10:40:09;;;;;;;4.45;2.60;;;21.00;95.30;;;;;;4972988;28;20193;-83
2023/07/17 10:42:36;;;;;;;5.78;3.13;;;20.80;95.70;;;;;;4972993;28;20205;-82
2023/07/17 10:45:10;;;;;;;4.00;2.50;;;21.00;95.70;;;;;;4974009;28;20236;-83
2023/07/17 10:47:39;;;;;;;5.63;3.33;;;21.00;95.80;;;;;;4966377;28;20203;-82
2023/07/17 10:50:08;;;;;;;5.63;3.08;;;21.20;95.90;;;;;;4973416;28;20217;-81
2023/07/17 10:52:36;;;;;;;4.63;3.42;;;21.40;96.10;;;;;;4973582;28;20225;-82
2023/07/17 10:55:10;;;;;;;5.32;3.13;;;21.30;95.30;;;;;;4972953;28;20228;-83
2023/07/17 10:57:38;;;;;;;5.93;3.40;;;20.70;95.70;;;;;;4981092;28;20209;-80
2023/07/17 11:00:17;;;;;;;7.22;3.22;;;20.60;96.50;;;;;;4974874;28;20691;-83
2023/07/17 11:02:45;;;;;;;5.20;2.78;;;20.70;96.40;;;;;;4985478;28;20211;-82
2023/07/17 11:05:13;;;;;;;8.63;3.00;;;20.80;96.30;;;;;;4978208;28;20224;-83
2023/07/17 11:07:40;;;;;;;7.88;3.47;;;20.70;96.30;;;;;;4975548;28;20671;-83
2023/07/17 11:10:12;;;;;;;3.88;3.15;;;20.70;96.20;;;;;;4975190;28;20204;-82
2023/07/17 11:12:39;;;;;;;4.30;3.17;;;20.70;96.30;;;;;;4975583;28;20213;-83
2023/07/17 11:15:14;;;;;;;6.05;2.80;;;21.20;96.20;;;;;;4957811;28;20237;-83
2023/07/17 11:17:42;;;;;;;6.70;3.33;;;21.10;96.20;;;;;;4974963;28;20196;-80
2023/07/17 11:20:12;;;;;;;3.95;3.28;;;20.90;96.00;;;;;;4975861;28;20208;-83
2023/07/17 11:22:40;;;;;;;6.25;3.00;;;21.00;95.80;;;;;;4975010;28;20215;-81
2023/07/17 11:25:09;;;;;;;6.85;3.75;;;20.90;95.60;;;;;;4969232;28;20229;-81
2023/07/17 11:27:37;;;;;;;8.05;3.55;;;20.90;95.70;;;;;;4967564;28;20212;-82
2023/07/17 11:30:19;;;;;;;4.03;3.38;;;20.90;96.00;;;;;;4953754;28;20209;-80
2023/07/17 11:32:56;;;;;;;4.82;3.13;;;21.00;96.50;;;;;;4973311;28;20213;-81
2023/07/17 11:35:41;;;;;;;4.30;3.33;;;21.00;96.70;;;;;;4970097;28;20235;-84
2023/07/17 11:38:10;;;;;;;5.05;3.70;;;21.00;96.70;;;;;;4974229;28;20205;-84
2023/07/17 11:40:51;;;;;;;5.28;3.95;;;21.10;96.10;;;;;;4975147;28;20204;-84
2023/07/17 11:43:28;;;;;;;6.32;3.90;;;21.00;96.00;;;;;;4977584;28;20294;-83
2023/07/17 11:46:01;;;;;;;6.05;3.58;;;21.10;96.50;;;;;;4976210;28;20224;-84
2023/07/17 11:48:29;;;;;;;6.38;4.00;;;21.10;96.50;;;;;;4975087;28;20204;-82
2023/07/17 11:51:02;;;;;;;6.63;3.88;;;21.10;96.30;;;;;;4982197;28;20207;-84
2023/07/17 11:53:29;;;;;;;7.93;3.47;;;21.10;96.40;;;;;;4984649;28;20224;-83
2023/07/17 11:55:56;;;;;;;4.97;3.40;;;21.30;95.70;;;;;;4979750;28;20221;-82
2023/07/17 11:58:29;;;;;;;4.18;3.60;;;21.70;95.60;;;;;;4978692;28;20204;-85
2023/07/17 12:00:57;;;;;;;5.45;3.97;;;22.10;95.00;;;;;;4978194;28;20197;-83
2023/07/17 12:03:25;;;;;;;7.35;3.67;;;22.00;94.20;;;;;;4957156;28;20208;-83
2023/07/17 12:05:53;;;;;;;6.78;3.30;;;22.40;94.30;;;;;;4981163;28;20228;-84
2023/07/17 12:08:22;;;;;;;6.25;3.67;;;22.60;93.70;;;;;;4977336;28;20205;-84
2023/07/17 12:10:50;;;;;;;5.20;3.67;;;22.60;93.30;;;;;;4975821;28;20228;-81
2023/07/17 12:13:17;;;;;;;4.75;3.40;;;21.80;93.20;;;;;;4977829;28;20224;-83
2023/07/17 12:15:45;;;;;;;6.43;3.30;;;21.70;93.20;;;;;;4978455;28;20253;-84
2023/07/17 12:18:12;;;;;;;5.55;3.40;;;21.70;93.70;;;;;;4974613;28;20204;-84
2023/07/17 12:20:40;;;;;;;6.80;3.78;;;21.70;93.60;;;;;;4974684;28;20201;-84
2023/07/17 12:23:08;;;;;;;6.45;4.40;;;21.60;93.90;;;;;;4974078;28;20201;-84
2023/07/17 12:25:41;;;;;;;6.82;3.88;;;21.60;93.80;;;;;;4974981;28;20610;-84
2023/07/17 12:28:09;;;;;;;8.57;3.97;;;21.40;93.20;;;;;;4976557;28;20212;-84
2023/07/17 12:30:36;;;;;;;7.55;3.88;;;21.40;94.10;;;;;;4956682;28;20200;-84
2023/07/17 12:33:04;;;;;;;6.03;4.50;;;21.40;93.90;;;;;;4963256;28;20247;-84
2023/07/17 12:35:32;;;;;;;6.88;4.03;;;21.20;94.30;;;;;;4971806;28;20235;-83
2023/07/17 12:38:00;;;;;;;6.80;4.03;;;21.40;94.30;;;;;;4978060;28;20278;-84
2023/07/17 12:40:28;;;;;;;4.95;3.83;;;21.50;94.80;;;;;;4960389;28;20201;-84
2023/07/17 12:42:57;;;;;;;7.03;4.57;;;21.80;94.50;;;;;;4975669;28;20189;-84
2023/07/17 12:45:25;;;;;;;4.63;3.75;;;21.90;94.40;;;;;;4975089;28;20460;-84
2023/07/17 12:47:53;;;;;;;6.22;3.95;;;21.50;94.30;;;;;;4959023;28;20552;-84
2023/07/17 12:50:21;;;;;;;6.80;5.15;;;21.80;94.50;;;;;;4971840;28;20197;-85
2023/07/17 12:52:49;;;;;;;7.10;3.53;;;22.10;94.20;;;;;;4970929;28;20560;-85
2023/07/17 12:55:17;;;;;;;6.13;4.13;;;22.40;93.20;;;;;;4974952;28;20224;-84